sensor_id;sensor_type;location;lat;lon;timestamp;P1;durP1;ratioP1;P2;durP2;ratioP2
65581;SDS011;52231;40.090;18.348;2023-07-30T00:01:07;14.68;;;6.05;;
65581;SDS011;52231;40.090;18.348;2023-07-30T00:03:35;10.95;;;5.25;;
65581;SDS011;52231;40.090;18.348;2023-07-30T00:06:03;11.48;;;5.97;;
65581;SDS011;52231;40.090;18.348;2023-07-30T00:08:32;12.45;;;6.82;;
65581;SDS011;52231;40.090;18.348;2023-07-30T00:11:07;15.13;;;5.78;;
65581;SDS011;52231;40.090;18.348;2023-07-30T00:13:38;12.52;;;6.20;;
65581;SDS011;52231;40.090;18.348;2023-07-30T00:16:12;14.32;;;6.10;;
65581;SDS011;52231;40.090;18.348;2023-07-30T00:18:40;13.88;;;5.47;;
65581;SDS011;52231;40.090;18.348;2023-07-30T00:21:10;11.55;;;5.22;;
65581;SDS011;52231;40.090;18.348;2023-07-30T00:23:38;13.50;;;5.93;;
65581;SDS011;52231;40.090;18.348;2023-07-30T00:26:06;10.27;;;5.78;;
65581;SDS011;52231;40.090;18.348;2023-07-30T00:28:34;10.90;;;5.25;;
65581;SDS011;52231;40.090;18.348;2023-07-30T00:31:03;11.55;;;5.50;;
65581;SDS011;52231;40.090;18.348;2023-07-30T00:33:31;11.13;;;5.78;;
65581;SDS011;52231;40.090;18.348;2023-07-30T00:36:03;10.98;;;5.60;;
65581;SDS011;52231;40.090;18.348;2023-07-30T00:40:59;11.77;;;5.45;;
65581;SDS011;52231;40.090;18.348;2023-07-30T00:43:27;12.45;;;6.00;;
65581;SDS011;52231;40.090;18.348;2023-07-30T00:45:55;13.05;;;6.80;;
65581;SDS011;52231;40.090;18.348;2023-07-30T00:50:51;16.13;;;6.88;;
65581;SDS011;52231;40.090;18.348;2023-07-30T00:53:19;15.45;;;7.32;;
65581;SDS011;52231;40.090;18.348;2023-07-30T00:55:49;13.27;;;6.40;;
65581;SDS011;52231;40.090;18.348;2023-07-30T00:58:17;14.77;;;6.72;;
65581;SDS011;52231;40.090;18.348;2023-07-30T01:00:48;14.18;;;6.45;;
65581;SDS011;52231;40.090;18.348;2023-07-30T01:03:19;14.63;;;7.10;;
65581;SDS011;52231;40.090;18.348;2023-07-30T01:05:48;14.30;;;6.93;;
65581;SDS011;52231;40.090;18.348;2023-07-30T01:08:16;15.25;;;7.00;;
65581;SDS011;52231;40.090;18.348;2023-07-30T01:10:44;13.80;;;6.38;;
65581;SDS011;52231;40.090;18.348;2023-07-30T01:13:13;12.93;;;6.30;;
65581;SDS011;52231;40.090;18.348;2023-07-30T01:15:43;15.70;;;6.75;;
65581;SDS011;52231;40.090;18.348;2023-07-30T01:18:11;14.77;;;7.40;;
65581;SDS011;52231;40.090;18.348;2023-07-30T01:20:40;13.05;;;6.63;;
65581;SDS011;52231;40.090;18.348;2023-07-30T01:23:08;16.20;;;7.25;;
65581;SDS011;52231;40.090;18.348;2023-07-30T01:25:36;13.50;;;6.55;;
65581;SDS011;52231;40.090;18.348;2023-07-30T01:28:05;12.75;;;6.35;;
65581;SDS011;52231;40.090;18.348;2023-07-30T01:30:40;14.88;;;6.90;;
65581;SDS011;52231;40.090;18.348;2023-07-30T01:33:10;14.40;;;6.80;;
65581;SDS011;52231;40.090;18.348;2023-07-30T01:35:39;13.05;;;7.20;;
65581;SDS011;52231;40.090;18.348;2023-07-30T01:38:10;14.35;;;6.72;;
65581;SDS011;52231;40.090;18.348;2023-07-30T01:40:41;13.77;;;6.78;;
65581;SDS011;52231;40.090;18.348;2023-07-30T01:43:09;15.70;;;6.88;;
65581;SDS011;52231;40.090;18.348;2023-07-30T01:45:38;13.73;;;6.70;;
65581;SDS011;52231;40.090;18.348;2023-07-30T01:48:08;13.77;;;6.55;;
65581;SDS011;52231;40.090;18.348;2023-07-30T01:53:04;13.75;;;6.65;;
65581;SDS011;52231;40.090;18.348;2023-07-30T01:55:32;15.40;;;6.70;;
65581;SDS011;52231;40.090;18.348;2023-07-30T01:58:00;13.57;;;6.82;;
65581;SDS011;52231;40.090;18.348;2023-07-30T02:03:04;16.13;;;7.80;;
65581;SDS011;52231;40.090;18.348;2023-07-30T02:05:32;13.88;;;7.55;;
65581;SDS011;52231;40.090;18.348;2023-07-30T02:08:01;17.55;;;7.85;;
65581;SDS011;52231;40.090;18.348;2023-07-30T02:10:30;14.48;;;7.68;;
65581;SDS011;52231;40.090;18.348;2023-07-30T02:12:58;14.80;;;7.50;;
65581;SDS011;52231;40.090;18.348;2023-07-30T02:15:27;14.23;;;7.22;;
65581;SDS011;52231;40.090;18.348;2023-07-30T02:17:55;12.75;;;7.22;;
65581;SDS011;52231;40.090;18.348;2023-07-30T02:20:23;14.48;;;7.13;;
65581;SDS011;52231;40.090;18.348;2023-07-30T02:22:53;17.20;;;7.13;;
65581;SDS011;52231;40.090;18.348;2023-07-30T02:27:49;13.77;;;6.82;;
65581;SDS011;52231;40.090;18.348;2023-07-30T02:30:18;14.68;;;6.90;;
65581;SDS011;52231;40.090;18.348;2023-07-30T02:32:46;13.35;;;7.40;;
65581;SDS011;52231;40.090;18.348;2023-07-30T02:35:14;14.30;;;7.13;;
65581;SDS011;52231;40.090;18.348;2023-07-30T02:37:42;16.13;;;7.20;;
65581;SDS011;52231;40.090;18.348;2023-07-30T02:40:10;16.63;;;6.57;;
65581;SDS011;52231;40.090;18.348;2023-07-30T02:42:39;14.73;;;7.25;;
65581;SDS011;52231;40.090;18.348;2023-07-30T02:45:07;17.13;;;7.32;;
65581;SDS011;52231;40.090;18.348;2023-07-30T02:47:35;15.52;;;7.32;;
65581;SDS011;52231;40.090;18.348;2023-07-30T02:50:04;13.55;;;7.75;;
65581;SDS011;52231;40.090;18.348;2023-07-30T02:52:33;14.65;;;7.13;;
65581;SDS011;52231;40.090;18.348;2023-07-30T02:57:30;17.83;;;7.93;;
65581;SDS011;52231;40.090;18.348;2023-07-30T02:59:57;13.93;;;7.13;;
65581;SDS011;52231;40.090;18.348;2023-07-30T03:02:26;16.30;;;7.95;;
65581;SDS011;52231;40.090;18.348;2023-07-30T03:07:28;14.85;;;7.28;;
65581;SDS011;52231;40.090;18.348;2023-07-30T03:12:24;19.13;;;9.15;;
65581;SDS011;52231;40.090;18.348;2023-07-30T03:14:53;18.20;;;7.78;;
65581;SDS011;52231;40.090;18.348;2023-07-30T03:17:21;14.57;;;7.65;;
65581;SDS011;52231;40.090;18.348;2023-07-30T03:19:49;14.65;;;7.30;;
65581;SDS011;52231;40.090;18.348;2023-07-30T03:22:17;14.40;;;7.32;;
65581;SDS011;52231;40.090;18.348;2023-07-30T03:27:14;17.17;;;7.15;;
65581;SDS011;52231;40.090;18.348;2023-07-30T03:29:42;13.32;;;6.57;;
65581;SDS011;52231;40.090;18.348;2023-07-30T03:32:10;13.82;;;6.68;;
65581;SDS011;52231;40.090;18.348;2023-07-30T03:34:38;14.98;;;7.53;;
65581;SDS011;52231;40.090;18.348;2023-07-30T03:37:07;15.38;;;7.80;;
65581;SDS011;52231;40.090;18.348;2023-07-30T03:39:35;15.02;;;7.30;;
65581;SDS011;52231;40.090;18.348;2023-07-30T03:42:03;15.60;;;7.47;;
65581;SDS011;52231;40.090;18.348;2023-07-30T03:44:31;14.40;;;7.55;;
65581;SDS011;52231;40.090;18.348;2023-07-30T03:46:59;13.75;;;7.20;;
65581;SDS011;52231;40.090;18.348;2023-07-30T03:49:27;16.80;;;7.90;;
65581;SDS011;52231;40.090;18.348;2023-07-30T03:51:55;14.95;;;7.30;;
65581;SDS011;52231;40.090;18.348;2023-07-30T03:54:53;13.50;;;7.15;;
65581;SDS011;52231;40.090;18.348;2023-07-30T03:57:21;18.40;;;7.15;;
65581;SDS011;52231;40.090;18.348;2023-07-30T03:59:49;17.00;;;7.68;;
65581;SDS011;52231;40.090;18.348;2023-07-30T04:02:16;14.45;;;7.20;;
65581;SDS011;52231;40.090;18.348;2023-07-30T04:04:45;15.50;;;7.68;;
65581;SDS011;52231;40.090;18.348;2023-07-30T04:07:15;17.50;;;7.88;;
65581;SDS011;52231;40.090;18.348;2023-07-30T04:12:12;13.48;;;6.85;;
65581;SDS011;52231;40.090;18.348;2023-07-30T04:14:40;34.63;;;19.10;;
65581;SDS011;52231;40.090;18.348;2023-07-30T04:17:08;18.90;;;8.82;;
65581;SDS011;52231;40.090;18.348;2023-07-30T04:19:36;14.93;;;8.15;;
65581;SDS011;52231;40.090;18.348;2023-07-30T04:22:04;15.43;;;7.35;;
65581;SDS011;52231;40.090;18.348;2023-07-30T04:27:00;14.38;;;8.20;;
65581;SDS011;52231;40.090;18.348;2023-07-30T04:29:28;15.95;;;7.90;;
65581;SDS011;52231;40.090;18.348;2023-07-30T04:31:56;15.38;;;8.35;;
65581;SDS011;52231;40.090;18.348;2023-07-30T04:34:25;16.95;;;7.90;;
65581;SDS011;52231;40.090;18.348;2023-07-30T04:36:53;13.80;;;7.43;;
65581;SDS011;52231;40.090;18.348;2023-07-30T04:39:22;15.18;;;7.53;;
65581;SDS011;52231;40.090;18.348;2023-07-30T04:44:18;16.50;;;6.45;;
65581;SDS011;52231;40.090;18.348;2023-07-30T04:46:46;12.93;;;6.70;;
65581;SDS011;52231;40.090;18.348;2023-07-30T04:49:14;14.20;;;6.82;;
65581;SDS011;52231;40.090;18.348;2023-07-30T04:54:11;14.18;;;6.55;;
65581;SDS011;52231;40.090;18.348;2023-07-30T04:56:39;13.25;;;6.07;;
65581;SDS011;52231;40.090;18.348;2023-07-30T04:59:07;19.85;;;6.32;;
65581;SDS011;52231;40.090;18.348;2023-07-30T05:01:35;15.25;;;6.07;;
65581;SDS011;52231;40.090;18.348;2023-07-30T05:06:31;16.25;;;7.53;;
65581;SDS011;52231;40.090;18.348;2023-07-30T05:09:00;20.13;;;7.78;;
65581;SDS011;52231;40.090;18.348;2023-07-30T05:11:30;20.40;;;8.00;;
65581;SDS011;52231;40.090;18.348;2023-07-30T05:13:59;18.42;;;8.63;;
65581;SDS011;52231;40.090;18.348;2023-07-30T05:16:27;20.88;;;8.90;;
65581;SDS011;52231;40.090;18.348;2023-07-30T05:18:55;22.13;;;8.60;;
65581;SDS011;52231;40.090;18.348;2023-07-30T05:23:51;23.17;;;8.60;;
65581;SDS011;52231;40.090;18.348;2023-07-30T05:26:19;23.92;;;9.45;;
65581;SDS011;52231;40.090;18.348;2023-07-30T05:31:15;15.00;;;6.30;;
65581;SDS011;52231;40.090;18.348;2023-07-30T05:33:43;15.15;;;5.88;;
65581;SDS011;52231;40.090;18.348;2023-07-30T05:36:12;16.80;;;5.60;;
65581;SDS011;52231;40.090;18.348;2023-07-30T05:38:40;12.13;;;5.18;;
65581;SDS011;52231;40.090;18.348;2023-07-30T05:41:10;10.57;;;3.92;;
65581;SDS011;52231;40.090;18.348;2023-07-30T05:43:41;10.80;;;3.78;;
65581;SDS011;52231;40.090;18.348;2023-07-30T05:46:09;10.50;;;3.50;;
65581;SDS011;52231;40.090;18.348;2023-07-30T05:48:37;10.63;;;3.72;;
65581;SDS011;52231;40.090;18.348;2023-07-30T05:51:05;9.55;;;3.67;;
65581;SDS011;52231;40.090;18.348;2023-07-30T05:53:34;8.07;;;3.50;;
65581;SDS011;52231;40.090;18.348;2023-07-30T05:56:02;8.85;;;3.85;;
65581;SDS011;52231;40.090;18.348;2023-07-30T05:58:30;11.30;;;3.50;;
65581;SDS011;52231;40.090;18.348;2023-07-30T06:00:59;8.75;;;3.58;;
65581;SDS011;52231;40.090;18.348;2023-07-30T06:03:27;9.00;;;3.60;;
65581;SDS011;52231;40.090;18.348;2023-07-30T06:05:55;10.70;;;3.92;;
65581;SDS011;52231;40.090;18.348;2023-07-30T06:08:23;9.88;;;3.55;;
65581;SDS011;52231;40.090;18.348;2023-07-30T06:10:51;8.68;;;3.10;;
65581;SDS011;52231;40.090;18.348;2023-07-30T06:13:20;8.90;;;3.20;;
65581;SDS011;52231;40.090;18.348;2023-07-30T06:15:48;10.35;;;2.90;;
65581;SDS011;52231;40.090;18.348;2023-07-30T06:18:17;6.45;;;2.78;;
65581;SDS011;52231;40.090;18.348;2023-07-30T06:20:45;9.45;;;3.15;;
65581;SDS011;52231;40.090;18.348;2023-07-30T06:23:16;7.47;;;3.15;;
65581;SDS011;52231;40.090;18.348;2023-07-30T06:25:53;6.97;;;2.90;;
65581;SDS011;52231;40.090;18.348;2023-07-30T06:28:21;11.55;;;3.00;;
65581;SDS011;52231;40.090;18.348;2023-07-30T06:30:50;8.70;;;2.88;;
65581;SDS011;52231;40.090;18.348;2023-07-30T06:33:18;8.68;;;2.90;;
65581;SDS011;52231;40.090;18.348;2023-07-30T06:35:47;10.70;;;3.05;;
65581;SDS011;52231;40.090;18.348;2023-07-30T06:38:15;9.35;;;2.70;;
65581;SDS011;52231;40.090;18.348;2023-07-30T06:40:44;7.75;;;3.20;;
65581;SDS011;52231;40.090;18.348;2023-07-30T06:43:12;8.80;;;3.08;;
65581;SDS011;52231;40.090;18.348;2023-07-30T06:45:40;11.45;;;3.08;;
65581;SDS011;52231;40.090;18.348;2023-07-30T06:48:09;8.35;;;2.78;;
65581;SDS011;52231;40.090;18.348;2023-07-30T06:50:38;7.38;;;2.83;;
65581;SDS011;52231;40.090;18.348;2023-07-30T06:53:07;9.55;;;3.00;;
65581;SDS011;52231;40.090;18.348;2023-07-30T06:55:36;8.95;;;2.88;;
65581;SDS011;52231;40.090;18.348;2023-07-30T06:58:04;7.43;;;3.05;;
65581;SDS011;52231;40.090;18.348;2023-07-30T07:00:32;8.32;;;3.00;;
65581;SDS011;52231;40.090;18.348;2023-07-30T07:03:01;8.80;;;3.22;;
65581;SDS011;52231;40.090;18.348;2023-07-30T07:05:29;9.90;;;3.25;;
65581;SDS011;52231;40.090;18.348;2023-07-30T07:07:57;8.77;;;3.42;;
65581;SDS011;52231;40.090;18.348;2023-07-30T07:10:25;8.80;;;3.13;;
65581;SDS011;52231;40.090;18.348;2023-07-30T07:12:53;9.95;;;3.42;;
65581;SDS011;52231;40.090;18.348;2023-07-30T07:15:22;8.98;;;2.95;;
65581;SDS011;52231;40.090;18.348;2023-07-30T07:17:50;10.10;;;3.30;;
65581;SDS011;52231;40.090;18.348;2023-07-30T07:20:18;8.98;;;3.00;;
65581;SDS011;52231;40.090;18.348;2023-07-30T07:22:46;9.30;;;3.17;;
65581;SDS011;52231;40.090;18.348;2023-07-30T07:25:14;7.55;;;2.92;;
65581;SDS011;52231;40.090;18.348;2023-07-30T07:27:45;7.13;;;2.80;;
65581;SDS011;52231;40.090;18.348;2023-07-30T07:30:13;6.13;;;2.65;;
65581;SDS011;52231;40.090;18.348;2023-07-30T07:32:42;7.40;;;2.65;;
65581;SDS011;52231;40.090;18.348;2023-07-30T07:35:10;9.50;;;3.00;;
65581;SDS011;52231;40.090;18.348;2023-07-30T07:37:38;9.23;;;2.70;;
65581;SDS011;52231;40.090;18.348;2023-07-30T07:40:07;6.60;;;2.90;;
65581;SDS011;52231;40.090;18.348;2023-07-30T07:42:40;9.95;;;2.92;;
65581;SDS011;52231;40.090;18.348;2023-07-30T07:45:08;11.20;;;2.80;;
65581;SDS011;52231;40.090;18.348;2023-07-30T07:47:37;7.95;;;2.72;;
65581;SDS011;52231;40.090;18.348;2023-07-30T07:50:05;8.32;;;2.88;;
65581;SDS011;52231;40.090;18.348;2023-07-30T07:52:33;8.40;;;2.80;;
65581;SDS011;52231;40.090;18.348;2023-07-30T07:55:02;7.85;;;2.75;;
65581;SDS011;52231;40.090;18.348;2023-07-30T07:57:31;7.57;;;3.00;;
65581;SDS011;52231;40.090;18.348;2023-07-30T07:59:59;10.05;;;2.67;;
65581;SDS011;52231;40.090;18.348;2023-07-30T08:02:38;8.45;;;2.85;;
65581;SDS011;52231;40.090;18.348;2023-07-30T08:05:06;8.77;;;2.83;;
65581;SDS011;52231;40.090;18.348;2023-07-30T08:07:35;7.45;;;2.85;;
65581;SDS011;52231;40.090;18.348;2023-07-30T08:10:03;8.93;;;2.88;;
65581;SDS011;52231;40.090;18.348;2023-07-30T08:12:32;11.27;;;3.10;;
65581;SDS011;52231;40.090;18.348;2023-07-30T08:15:00;7.07;;;2.80;;
65581;SDS011;52231;40.090;18.348;2023-07-30T08:17:29;6.30;;;2.42;;
65581;SDS011;52231;40.090;18.348;2023-07-30T08:19:57;8.15;;;2.70;;
65581;SDS011;52231;40.090;18.348;2023-07-30T08:22:25;6.90;;;2.70;;
65581;SDS011;52231;40.090;18.348;2023-07-30T08:24:53;6.70;;;2.58;;
65581;SDS011;52231;40.090;18.348;2023-07-30T08:27:22;10.30;;;2.80;;
65581;SDS011;52231;40.090;18.348;2023-07-30T08:29:50;7.00;;;2.78;;
65581;SDS011;52231;40.090;18.348;2023-07-30T08:32:19;6.25;;;2.42;;
65581;SDS011;52231;40.090;18.348;2023-07-30T08:34:47;6.13;;;2.40;;
65581;SDS011;52231;40.090;18.348;2023-07-30T08:37:15;8.82;;;3.00;;
65581;SDS011;52231;40.090;18.348;2023-07-30T08:39:44;8.85;;;2.50;;
65581;SDS011;52231;40.090;18.348;2023-07-30T08:42:14;6.55;;;2.40;;
65581;SDS011;52231;40.090;18.348;2023-07-30T08:44:43;9.63;;;2.50;;
65581;SDS011;52231;40.090;18.348;2023-07-30T08:47:14;7.28;;;2.50;;
65581;SDS011;52231;40.090;18.348;2023-07-30T08:49:42;5.72;;;2.38;;
65581;SDS011;52231;40.090;18.348;2023-07-30T08:52:14;7.22;;;2.60;;
65581;SDS011;52231;40.090;18.348;2023-07-30T08:54:44;7.03;;;2.78;;
65581;SDS011;52231;40.090;18.348;2023-07-30T08:57:19;10.32;;;2.80;;
65581;SDS011;52231;40.090;18.348;2023-07-30T08:59:52;8.25;;;2.72;;
65581;SDS011;52231;40.090;18.348;2023-07-30T09:02:37;7.18;;;2.58;;
65581;SDS011;52231;40.090;18.348;2023-07-30T09:05:06;7.80;;;2.70;;
65581;SDS011;52231;40.090;18.348;2023-07-30T09:07:34;6.32;;;2.53;;
65581;SDS011;52231;40.090;18.348;2023-07-30T09:10:02;9.73;;;2.70;;
65581;SDS011;52231;40.090;18.348;2023-07-30T09:12:32;7.57;;;2.50;;
65581;SDS011;52231;40.090;18.348;2023-07-30T09:15:04;6.70;;;2.70;;
65581;SDS011;52231;40.090;18.348;2023-07-30T09:17:34;6.47;;;2.50;;
65581;SDS011;52231;40.090;18.348;2023-07-30T09:20:03;7.53;;;2.60;;
65581;SDS011;52231;40.090;18.348;2023-07-30T09:22:32;9.88;;;2.70;;
65581;SDS011;52231;40.090;18.348;2023-07-30T09:25:03;7.05;;;2.33;;
65581;SDS011;52231;40.090;18.348;2023-07-30T09:27:32;8.38;;;2.80;;
65581;SDS011;52231;40.090;18.348;2023-07-30T09:30:02;7.22;;;2.70;;
65581;SDS011;52231;40.090;18.348;2023-07-30T09:32:34;6.55;;;2.30;;
65581;SDS011;52231;40.090;18.348;2023-07-30T09:35:06;6.72;;;2.55;;
65581;SDS011;52231;40.090;18.348;2023-07-30T09:37:37;7.93;;;2.40;;
65581;SDS011;52231;40.090;18.348;2023-07-30T09:40:06;7.60;;;2.90;;
65581;SDS011;52231;40.090;18.348;2023-07-30T09:42:36;7.40;;;2.58;;
65581;SDS011;52231;40.090;18.348;2023-07-30T09:45:08;7.35;;;2.50;;
65581;SDS011;52231;40.090;18.348;2023-07-30T09:47:51;6.38;;;2.15;;
65581;SDS011;52231;40.090;18.348;2023-07-30T09:50:20;11.32;;;5.43;;
65581;SDS011;52231;40.090;18.348;2023-07-30T09:52:48;8.15;;;2.45;;
65581;SDS011;52231;40.090;18.348;2023-07-30T09:55:17;5.72;;;2.60;;
65581;SDS011;52231;40.090;18.348;2023-07-30T09:57:46;7.25;;;2.47;;
65581;SDS011;52231;40.090;18.348;2023-07-30T10:00:17;6.10;;;2.60;;
65581;SDS011;52231;40.090;18.348;2023-07-30T10:02:46;6.90;;;2.75;;
65581;SDS011;52231;40.090;18.348;2023-07-30T10:05:19;6.75;;;2.88;;
65581;SDS011;52231;40.090;18.348;2023-07-30T10:10:27;8.13;;;3.03;;
65581;SDS011;52231;40.090;18.348;2023-07-30T10:12:59;7.18;;;2.90;;
65581;SDS011;52231;40.090;18.348;2023-07-30T10:15:33;7.10;;;2.70;;
65581;SDS011;52231;40.090;18.348;2023-07-30T10:18:03;9.30;;;3.15;;
65581;SDS011;52231;40.090;18.348;2023-07-30T10:20:31;8.00;;;2.90;;
65581;SDS011;52231;40.090;18.348;2023-07-30T10:23:00;8.20;;;3.10;;
65581;SDS011;52231;40.090;18.348;2023-07-30T10:25:45;4.97;;;2.50;;
65581;SDS011;52231;40.090;18.348;2023-07-30T10:28:27;7.10;;;3.00;;
65581;SDS011;52231;40.090;18.348;2023-07-30T10:31:00;7.05;;;2.83;;
65581;SDS011;52231;40.090;18.348;2023-07-30T10:33:50;6.00;;;2.67;;
65581;SDS011;52231;40.090;18.348;2023-07-30T10:39:12;7.68;;;2.97;;
65581;SDS011;52231;40.090;18.348;2023-07-30T10:41:44;7.20;;;2.90;;
65581;SDS011;52231;40.090;18.348;2023-07-30T10:44:17;8.55;;;3.25;;
65581;SDS011;52231;40.090;18.348;2023-07-30T10:46:46;8.35;;;2.88;;
65581;SDS011;52231;40.090;18.348;2023-07-30T10:49:15;7.93;;;3.00;;
65581;SDS011;52231;40.090;18.348;2023-07-30T10:51:43;7.32;;;2.72;;
65581;SDS011;52231;40.090;18.348;2023-07-30T10:54:12;7.68;;;2.90;;
65581;SDS011;52231;40.090;18.348;2023-07-30T10:56:40;7.80;;;2.60;;
65581;SDS011;52231;40.090;18.348;2023-07-30T10:59:08;13.38;;;2.80;;
65581;SDS011;52231;40.090;18.348;2023-07-30T11:01:37;6.80;;;2.67;;
65581;SDS011;52231;40.090;18.348;2023-07-30T11:04:10;7.70;;;2.85;;
65581;SDS011;52231;40.090;18.348;2023-07-30T11:06:46;7.60;;;2.78;;
65581;SDS011;52231;40.090;18.348;2023-07-30T11:09:20;7.75;;;2.88;;
65581;SDS011;52231;40.090;18.348;2023-07-30T11:11:50;5.63;;;2.40;;
65581;SDS011;52231;40.090;18.348;2023-07-30T11:14:19;5.25;;;2.30;;
65581;SDS011;52231;40.090;18.348;2023-07-30T11:17:06;8.57;;;2.83;;
65581;SDS011;52231;40.090;18.348;2023-07-30T11:19:38;7.35;;;2.40;;
65581;SDS011;52231;40.090;18.348;2023-07-30T11:22:10;6.68;;;2.72;;
65581;SDS011;52231;40.090;18.348;2023-07-30T11:24:38;7.60;;;2.90;;
65581;SDS011;52231;40.090;18.348;2023-07-30T11:27:07;8.38;;;2.40;;
65581;SDS011;52231;40.090;18.348;2023-07-30T11:29:35;8.43;;;2.72;;
65581;SDS011;52231;40.090;18.348;2023-07-30T11:32:03;8.48;;;2.75;;
65581;SDS011;52231;40.090;18.348;2023-07-30T11:34:31;6.50;;;2.67;;
65581;SDS011;52231;40.090;18.348;2023-07-30T11:37:05;7.30;;;2.60;;
65581;SDS011;52231;40.090;18.348;2023-07-30T11:39:33;8.73;;;2.80;;
65581;SDS011;52231;40.090;18.348;2023-07-30T11:42:02;7.47;;;2.80;;
65581;SDS011;52231;40.090;18.348;2023-07-30T11:44:31;6.68;;;2.63;;
65581;SDS011;52231;40.090;18.348;2023-07-30T11:47:04;7.40;;;2.70;;
65581;SDS011;52231;40.090;18.348;2023-07-30T11:49:33;6.32;;;2.58;;
65581;SDS011;52231;40.090;18.348;2023-07-30T11:52:04;6.72;;;2.75;;
65581;SDS011;52231;40.090;18.348;2023-07-30T11:54:36;7.35;;;2.50;;
65581;SDS011;52231;40.090;18.348;2023-07-30T11:57:05;6.68;;;2.38;;
65581;SDS011;52231;40.090;18.348;2023-07-30T11:59:36;5.55;;;2.58;;
65581;SDS011;52231;40.090;18.348;2023-07-30T12:02:06;5.97;;;2.63;;
65581;SDS011;52231;40.090;18.348;2023-07-30T12:04:44;8.15;;;2.90;;
65581;SDS011;52231;40.090;18.348;2023-07-30T12:07:23;10.25;;;2.63;;
65581;SDS011;52231;40.090;18.348;2023-07-30T12:09:52;6.50;;;2.70;;
65581;SDS011;52231;40.090;18.348;2023-07-30T12:12:24;7.40;;;2.72;;
65581;SDS011;52231;40.090;18.348;2023-07-30T12:14:53;5.88;;;2.67;;
65581;SDS011;52231;40.090;18.348;2023-07-30T12:17:22;7.97;;;2.50;;
65581;SDS011;52231;40.090;18.348;2023-07-30T12:19:51;5.13;;;2.33;;
65581;SDS011;52231;40.090;18.348;2023-07-30T12:22:19;8.02;;;2.70;;
65581;SDS011;52231;40.090;18.348;2023-07-30T12:24:47;6.00;;;2.58;;
65581;SDS011;52231;40.090;18.348;2023-07-30T12:27:18;8.23;;;2.67;;
65581;SDS011;52231;40.090;18.348;2023-07-30T12:29:46;7.78;;;3.47;;
65581;SDS011;52231;40.090;18.348;2023-07-30T12:32:14;10.73;;;2.63;;
65581;SDS011;52231;40.090;18.348;2023-07-30T12:34:43;8.10;;;2.83;;
65581;SDS011;52231;40.090;18.348;2023-07-30T12:37:11;8.35;;;2.72;;
65581;SDS011;52231;40.090;18.348;2023-07-30T12:39:39;7.85;;;2.95;;
65581;SDS011;52231;40.090;18.348;2023-07-30T12:42:07;6.60;;;2.60;;
65581;SDS011;52231;40.090;18.348;2023-07-30T12:44:35;6.10;;;2.75;;
65581;SDS011;52231;40.090;18.348;2023-07-30T12:47:04;6.50;;;2.53;;
65581;SDS011;52231;40.090;18.348;2023-07-30T12:49:32;7.30;;;2.45;;
65581;SDS011;52231;40.090;18.348;2023-07-30T12:52:00;5.90;;;2.58;;
65581;SDS011;52231;40.090;18.348;2023-07-30T12:54:28;5.85;;;2.30;;
65581;SDS011;52231;40.090;18.348;2023-07-30T12:56:56;11.63;;;2.90;;
65581;SDS011;52231;40.090;18.348;2023-07-30T12:59:25;9.30;;;2.80;;
65581;SDS011;52231;40.090;18.348;2023-07-30T13:01:53;7.28;;;2.97;;
65581;SDS011;52231;40.090;18.348;2023-07-30T13:04:23;8.95;;;2.78;;
65581;SDS011;52231;40.090;18.348;2023-07-30T13:06:55;8.77;;;2.75;;
65581;SDS011;52231;40.090;18.348;2023-07-30T13:09:23;9.98;;;2.65;;
65581;SDS011;52231;40.090;18.348;2023-07-30T13:11:51;7.63;;;2.90;;
65581;SDS011;52231;40.090;18.348;2023-07-30T13:14:19;7.72;;;2.70;;
65581;SDS011;52231;40.090;18.348;2023-07-30T13:16:47;9.02;;;2.92;;
65581;SDS011;52231;40.090;18.348;2023-07-30T13:19:16;6.57;;;2.55;;
65581;SDS011;52231;40.090;18.348;2023-07-30T13:21:44;12.10;;;3.00;;
65581;SDS011;52231;40.090;18.348;2023-07-30T13:24:12;5.82;;;2.80;;
65581;SDS011;52231;40.090;18.348;2023-07-30T13:26:43;8.07;;;2.90;;
65581;SDS011;52231;40.090;18.348;2023-07-30T13:29:11;8.85;;;2.67;;
65581;SDS011;52231;40.090;18.348;2023-07-30T13:31:39;8.07;;;2.97;;
65581;SDS011;52231;40.090;18.348;2023-07-30T13:34:08;6.35;;;2.90;;
65581;SDS011;52231;40.090;18.348;2023-07-30T13:36:36;10.77;;;2.90;;
65581;SDS011;52231;40.090;18.348;2023-07-30T13:39:04;10.48;;;2.97;;
65581;SDS011;52231;40.090;18.348;2023-07-30T13:41:34;8.68;;;2.80;;
65581;SDS011;52231;40.090;18.348;2023-07-30T13:44:04;6.28;;;2.80;;
65581;SDS011;52231;40.090;18.348;2023-07-30T13:46:32;6.07;;;2.78;;
65581;SDS011;52231;40.090;18.348;2023-07-30T13:49:00;10.00;;;3.00;;
65581;SDS011;52231;40.090;18.348;2023-07-30T13:51:28;7.07;;;2.72;;
65581;SDS011;52231;40.090;18.348;2023-07-30T13:53:59;8.15;;;3.25;;
65581;SDS011;52231;40.090;18.348;2023-07-30T13:56:30;6.00;;;2.65;;
65581;SDS011;52231;40.090;18.348;2023-07-30T13:58:58;7.15;;;2.80;;
65581;SDS011;52231;40.090;18.348;2023-07-30T14:01:27;5.55;;;2.30;;
65581;SDS011;52231;40.090;18.348;2023-07-30T14:03:56;6.05;;;2.45;;
65581;SDS011;52231;40.090;18.348;2023-07-30T14:06:24;6.95;;;2.40;;
65581;SDS011;52231;40.090;18.348;2023-07-30T14:08:52;6.80;;;2.50;;
65581;SDS011;52231;40.090;18.348;2023-07-30T14:11:21;7.00;;;2.72;;
65581;SDS011;52231;40.090;18.348;2023-07-30T14:13:53;6.70;;;2.28;;
65581;SDS011;52231;40.090;18.348;2023-07-30T14:16:23;6.07;;;2.70;;
65581;SDS011;52231;40.090;18.348;2023-07-30T14:18:51;7.20;;;2.60;;
65581;SDS011;52231;40.090;18.348;2023-07-30T14:21:19;7.78;;;2.67;;
65581;SDS011;52231;40.090;18.348;2023-07-30T14:23:49;7.68;;;2.40;;
65581;SDS011;52231;40.090;18.348;2023-07-30T14:26:17;6.47;;;2.60;;
65581;SDS011;52231;40.090;18.348;2023-07-30T14:28:45;10.07;;;2.75;;
65581;SDS011;52231;40.090;18.348;2023-07-30T14:31:13;7.30;;;2.70;;
65581;SDS011;52231;40.090;18.348;2023-07-30T14:33:42;7.75;;;2.78;;
65581;SDS011;52231;40.090;18.348;2023-07-30T14:36:10;8.23;;;2.70;;
65581;SDS011;52231;40.090;18.348;2023-07-30T14:38:39;10.00;;;2.70;;
65581;SDS011;52231;40.090;18.348;2023-07-30T14:41:07;6.88;;;2.60;;
65581;SDS011;52231;40.090;18.348;2023-07-30T14:43:37;5.53;;;2.60;;
65581;SDS011;52231;40.090;18.348;2023-07-30T14:46:05;8.98;;;2.88;;
65581;SDS011;52231;40.090;18.348;2023-07-30T14:48:34;6.18;;;2.47;;
65581;SDS011;52231;40.090;18.348;2023-07-30T14:51:02;5.75;;;2.38;;
65581;SDS011;52231;40.090;18.348;2023-07-30T14:53:32;4.53;;;2.40;;
65581;SDS011;52231;40.090;18.348;2023-07-30T14:56:01;6.95;;;2.58;;
65581;SDS011;52231;40.090;18.348;2023-07-30T14:58:29;7.13;;;2.75;;
65581;SDS011;52231;40.090;18.348;2023-07-30T15:00:57;6.80;;;2.70;;
65581;SDS011;52231;40.090;18.348;2023-07-30T15:03:26;7.30;;;2.90;;
65581;SDS011;52231;40.090;18.348;2023-07-30T15:05:54;6.78;;;2.80;;
65581;SDS011;52231;40.090;18.348;2023-07-30T15:08:22;7.43;;;2.90;;
65581;SDS011;52231;40.090;18.348;2023-07-30T15:10:50;7.38;;;2.70;;
65581;SDS011;52231;40.090;18.348;2023-07-30T15:13:18;8.55;;;2.53;;
65581;SDS011;52231;40.090;18.348;2023-07-30T15:15:46;7.50;;;2.72;;
65581;SDS011;52231;40.090;18.348;2023-07-30T15:18:15;7.25;;;2.85;;
65581;SDS011;52231;40.090;18.348;2023-07-30T15:20:43;9.15;;;2.95;;
65581;SDS011;52231;40.090;18.348;2023-07-30T15:23:11;6.97;;;2.70;;
65581;SDS011;52231;40.090;18.348;2023-07-30T15:25:39;6.70;;;2.60;;